sensor_id;sensor_type;location;lat;lon;timestamp;P1;durP1;ratioP1;P2;durP2;ratioP2
28003;SDS011;15330;51.234;6.754;2023-02-15T00:01:40;49.40;;;26.20;;
28003;SDS011;15330;51.234;6.754;2023-02-15T00:04:06;51.88;;;27.08;;
28003;SDS011;15330;51.234;6.754;2023-02-15T00:06:33;57.28;;;29.63;;
28003;SDS011;15330;51.234;6.754;2023-02-15T00:08:59;56.45;;;27.70;;
28003;SDS011;15330;51.234;6.754;2023-02-15T00:11:25;51.30;;;24.98;;
28003;SDS011;15330;51.234;6.754;2023-02-15T00:14:15;54.28;;;26.38;;
28003;SDS011;15330;51.234;6.754;2023-02-15T00:16:43;55.50;;;27.73;;
28003;SDS011;15330;51.234;6.754;2023-02-15T00:19:10;51.70;;;27.33;;
28003;SDS011;15330;51.234;6.754;2023-02-15T00:21:36;53.38;;;27.73;;
28003;SDS011;15330;51.234;6.754;2023-02-15T00:24:04;56.55;;;27.08;;
28003;SDS011;15330;51.234;6.754;2023-02-15T00:26:31;52.55;;;27.88;;
28003;SDS011;15330;51.234;6.754;2023-02-15T00:28:57;52.78;;;27.95;;
28003;SDS011;15330;51.234;6.754;2023-02-15T00:31:26;56.28;;;28.23;;
28003;SDS011;15330;51.234;6.754;2023-02-15T00:33:53;60.65;;;30.15;;
28003;SDS011;15330;51.234;6.754;2023-02-15T00:36:18;55.42;;;28.15;;
28003;SDS011;15330;51.234;6.754;2023-02-15T00:38:43;56.50;;;28.33;;
28003;SDS011;15330;51.234;6.754;2023-02-15T00:41:09;55.28;;;27.45;;
28003;SDS011;15330;51.234;6.754;2023-02-15T00:43:35;56.25;;;27.48;;
28003;SDS011;15330;51.234;6.754;2023-02-15T00:46:02;55.10;;;27.67;;
28003;SDS011;15330;51.234;6.754;2023-02-15T00:48:28;52.60;;;26.55;;
28003;SDS011;15330;51.234;6.754;2023-02-15T00:50:54;55.58;;;28.33;;
28003;SDS011;15330;51.234;6.754;2023-02-15T00:53:22;56.90;;;29.13;;
28003;SDS011;15330;51.234;6.754;2023-02-15T00:55:48;57.25;;;27.10;;
28003;SDS011;15330;51.234;6.754;2023-02-15T00:58:14;59.97;;;28.90;;
28003;SDS011;15330;51.234;6.754;2023-02-15T01:00:40;55.35;;;27.90;;
28003;SDS011;15330;51.234;6.754;2023-02-15T01:03:10;56.83;;;28.95;;
28003;SDS011;15330;51.234;6.754;2023-02-15T01:05:36;55.60;;;27.30;;
28003;SDS011;15330;51.234;6.754;2023-02-15T01:08:02;56.05;;;26.67;;
28003;SDS011;15330;51.234;6.754;2023-02-15T01:10:27;58.42;;;27.90;;
28003;SDS011;15330;51.234;6.754;2023-02-15T01:12:54;56.50;;;27.25;;
28003;SDS011;15330;51.234;6.754;2023-02-15T01:15:20;55.42;;;28.80;;
28003;SDS011;15330;51.234;6.754;2023-02-15T01:17:46;58.78;;;29.42;;
28003;SDS011;15330;51.234;6.754;2023-02-15T01:20:23;57.08;;;27.63;;
28003;SDS011;15330;51.234;6.754;2023-02-15T01:22:51;57.75;;;28.52;;
28003;SDS011;15330;51.234;6.754;2023-02-15T01:25:17;58.63;;;29.27;;
28003;SDS011;15330;51.234;6.754;2023-02-15T01:27:43;53.15;;;28.48;;
28003;SDS011;15330;51.234;6.754;2023-02-15T01:30:10;56.35;;;28.40;;
28003;SDS011;15330;51.234;6.754;2023-02-15T01:32:36;56.30;;;28.30;;
28003;SDS011;15330;51.234;6.754;2023-02-15T01:35:01;57.58;;;28.23;;
28003;SDS011;15330;51.234;6.754;2023-02-15T01:37:29;59.70;;;31.23;;
28003;SDS011;15330;51.234;6.754;2023-02-15T01:39:55;56.60;;;28.65;;
28003;SDS011;15330;51.234;6.754;2023-02-15T01:42:21;61.50;;;28.35;;
28003;SDS011;15330;51.234;6.754;2023-02-15T01:44:49;54.65;;;28.92;;
28003;SDS011;15330;51.234;6.754;2023-02-15T01:47:24;59.97;;;28.08;;
28003;SDS011;15330;51.234;6.754;2023-02-15T01:50:05;60.65;;;29.23;;
28003;SDS011;15330;51.234;6.754;2023-02-15T01:52:48;53.50;;;28.00;;
28003;SDS011;15330;51.234;6.754;2023-02-15T01:55:29;53.22;;;27.15;;
28003;SDS011;15330;51.234;6.754;2023-02-15T01:57:59;58.97;;;28.73;;
28003;SDS011;15330;51.234;6.754;2023-02-15T02:00:25;59.03;;;27.73;;
28003;SDS011;15330;51.234;6.754;2023-02-15T02:02:52;57.15;;;29.60;;
28003;SDS011;15330;51.234;6.754;2023-02-15T02:05:20;57.25;;;28.48;;
28003;SDS011;15330;51.234;6.754;2023-02-15T02:07:45;58.80;;;29.15;;
28003;SDS011;15330;51.234;6.754;2023-02-15T02:10:15;58.70;;;29.35;;
28003;SDS011;15330;51.234;6.754;2023-02-15T02:12:42;60.72;;;30.13;;
28003;SDS011;15330;51.234;6.754;2023-02-15T02:15:10;55.30;;;28.48;;
28003;SDS011;15330;51.234;6.754;2023-02-15T02:17:58;62.72;;;30.00;;
28003;SDS011;15330;51.234;6.754;2023-02-15T02:20:45;61.95;;;29.83;;
28003;SDS011;15330;51.234;6.754;2023-02-15T02:38:11;58.03;;;29.38;;
28003;SDS011;15330;51.234;6.754;2023-02-15T02:46:34;56.85;;;27.85;;
28003;SDS011;15330;51.234;6.754;2023-02-15T02:49:05;67.22;;;30.17;;
28003;SDS011;15330;51.234;6.754;2023-02-15T02:51:30;60.78;;;30.38;;
28003;SDS011;15330;51.234;6.754;2023-02-15T02:53:56;62.05;;;30.67;;
28003;SDS011;15330;51.234;6.754;2023-02-15T02:56:37;58.15;;;29.33;;
28003;SDS011;15330;51.234;6.754;2023-02-15T02:59:11;66.72;;;31.92;;
28003;SDS011;15330;51.234;6.754;2023-02-15T03:02:03;66.72;;;32.35;;
28003;SDS011;15330;51.234;6.754;2023-02-15T03:04:38;60.75;;;31.33;;
28003;SDS011;15330;51.234;6.754;2023-02-15T03:07:12;64.40;;;31.52;;
28003;SDS011;15330;51.234;6.754;2023-02-15T03:09:47;66.75;;;30.63;;
28003;SDS011;15330;51.234;6.754;2023-02-15T03:12:16;66.80;;;31.08;;
28003;SDS011;15330;51.234;6.754;2023-02-15T03:14:49;69.05;;;32.47;;
28003;SDS011;15330;51.234;6.754;2023-02-15T03:17:18;65.03;;;29.52;;
28003;SDS011;15330;51.234;6.754;2023-02-15T03:19:47;68.13;;;31.75;;
28003;SDS011;15330;51.234;6.754;2023-02-15T03:22:59;67.50;;;32.00;;
28003;SDS011;15330;51.234;6.754;2023-02-15T03:27:48;68.55;;;31.65;;
28003;SDS011;15330;51.234;6.754;2023-02-15T03:30:17;60.05;;;29.67;;
28003;SDS011;15330;51.234;6.754;2023-02-15T03:32:45;62.90;;;29.15;;
28003;SDS011;15330;51.234;6.754;2023-02-15T03:35:12;67.20;;;31.17;;
28003;SDS011;15330;51.234;6.754;2023-02-15T03:37:42;61.72;;;29.42;;
28003;SDS011;15330;51.234;6.754;2023-02-15T03:40:26;64.53;;;30.38;;
28003;SDS011;15330;51.234;6.754;2023-02-15T03:43:17;63.38;;;31.35;;
28003;SDS011;15330;51.234;6.754;2023-02-15T03:45:50;64.38;;;30.33;;
28003;SDS011;15330;51.234;6.754;2023-02-15T03:48:27;65.90;;;29.92;;
28003;SDS011;15330;51.234;6.754;2023-02-15T03:50:58;66.43;;;31.02;;
28003;SDS011;15330;51.234;6.754;2023-02-15T03:53:46;64.07;;;30.70;;
28003;SDS011;15330;51.234;6.754;2023-02-15T03:56:14;62.90;;;29.38;;
28003;SDS011;15330;51.234;6.754;2023-02-15T03:58:39;67.68;;;32.45;;
28003;SDS011;15330;51.234;6.754;2023-02-15T04:04:12;60.47;;;28.45;;
28003;SDS011;15330;51.234;6.754;2023-02-15T04:06:49;62.63;;;29.75;;
28003;SDS011;15330;51.234;6.754;2023-02-15T04:09:15;67.38;;;29.98;;
28003;SDS011;15330;51.234;6.754;2023-02-15T04:14:24;63.87;;;29.67;;
28003;SDS011;15330;51.234;6.754;2023-02-15T04:17:08;67.28;;;31.38;;
28003;SDS011;15330;51.234;6.754;2023-02-15T04:19:34;63.80;;;30.63;;
28003;SDS011;15330;51.234;6.754;2023-02-15T04:22:19;62.58;;;30.55;;
28003;SDS011;15330;51.234;6.754;2023-02-15T04:25:03;65.53;;;31.50;;
28003;SDS011;15330;51.234;6.754;2023-02-15T04:27:39;63.75;;;30.25;;
28003;SDS011;15330;51.234;6.754;2023-02-15T04:30:09;64.10;;;29.63;;
28003;SDS011;15330;51.234;6.754;2023-02-15T04:32:36;68.95;;;30.92;;
28003;SDS011;15330;51.234;6.754;2023-02-15T04:35:02;69.85;;;30.77;;
28003;SDS011;15330;51.234;6.754;2023-02-15T04:37:28;63.70;;;29.92;;
28003;SDS011;15330;51.234;6.754;2023-02-15T04:39:53;60.55;;;29.83;;
28003;SDS011;15330;51.234;6.754;2023-02-15T04:42:19;64.80;;;30.02;;
28003;SDS011;15330;51.234;6.754;2023-02-15T04:44:44;56.75;;;28.73;;
28003;SDS011;15330;51.234;6.754;2023-02-15T04:47:09;61.58;;;29.15;;
28003;SDS011;15330;51.234;6.754;2023-02-15T04:49:35;66.65;;;29.75;;
28003;SDS011;15330;51.234;6.754;2023-02-15T04:52:00;66.10;;;30.20;;
28003;SDS011;15330;51.234;6.754;2023-02-15T04:54:26;60.78;;;29.90;;
28003;SDS011;15330;51.234;6.754;2023-02-15T04:56:51;64.18;;;30.30;;
28003;SDS011;15330;51.234;6.754;2023-02-15T04:59:17;59.88;;;28.10;;
28003;SDS011;15330;51.234;6.754;2023-02-15T05:01:44;60.88;;;28.90;;
28003;SDS011;15330;51.234;6.754;2023-02-15T05:04:09;62.28;;;30.38;;
28003;SDS011;15330;51.234;6.754;2023-02-15T05:06:34;61.50;;;30.88;;
28003;SDS011;15330;51.234;6.754;2023-02-15T05:09:00;60.45;;;29.92;;
28003;SDS011;15330;51.234;6.754;2023-02-15T05:11:26;65.60;;;28.75;;
28003;SDS011;15330;51.234;6.754;2023-02-15T05:13:52;65.65;;;28.42;;
28003;SDS011;15330;51.234;6.754;2023-02-15T05:16:17;62.60;;;28.77;;
28003;SDS011;15330;51.234;6.754;2023-02-15T05:18:43;60.80;;;29.13;;
28003;SDS011;15330;51.234;6.754;2023-02-15T05:21:08;64.97;;;29.92;;
28003;SDS011;15330;51.234;6.754;2023-02-15T05:23:34;60.58;;;27.95;;
28003;SDS011;15330;51.234;6.754;2023-02-15T05:26:00;62.30;;;28.98;;
28003;SDS011;15330;51.234;6.754;2023-02-15T05:28:44;62.33;;;29.15;;
28003;SDS011;15330;51.234;6.754;2023-02-15T05:31:11;60.90;;;29.98;;
28003;SDS011;15330;51.234;6.754;2023-02-15T05:33:40;66.03;;;31.55;;
28003;SDS011;15330;51.234;6.754;2023-02-15T05:36:06;61.17;;;27.92;;
28003;SDS011;15330;51.234;6.754;2023-02-15T05:38:32;66.05;;;29.48;;
28003;SDS011;15330;51.234;6.754;2023-02-15T05:40:58;57.85;;;27.35;;
28003;SDS011;15330;51.234;6.754;2023-02-15T05:43:24;67.57;;;29.73;;
28003;SDS011;15330;51.234;6.754;2023-02-15T05:45:50;60.75;;;28.42;;
28003;SDS011;15330;51.234;6.754;2023-02-15T05:48:18;57.42;;;28.40;;
28003;SDS011;15330;51.234;6.754;2023-02-15T05:50:44;58.78;;;26.98;;
28003;SDS011;15330;51.234;6.754;2023-02-15T05:53:10;60.00;;;28.75;;
28003;SDS011;15330;51.234;6.754;2023-02-15T05:55:39;59.80;;;27.92;;
28003;SDS011;15330;51.234;6.754;2023-02-15T05:58:06;51.83;;;25.10;;
28003;SDS011;15330;51.234;6.754;2023-02-15T06:00:32;58.95;;;27.27;;
28003;SDS011;15330;51.234;6.754;2023-02-15T06:02:58;58.70;;;26.33;;
28003;SDS011;15330;51.234;6.754;2023-02-15T06:05:23;55.20;;;27.15;;
28003;SDS011;15330;51.234;6.754;2023-02-15T06:07:49;56.45;;;27.52;;
28003;SDS011;15330;51.234;6.754;2023-02-15T06:10:14;55.47;;;27.10;;
28003;SDS011;15330;51.234;6.754;2023-02-15T06:12:40;64.43;;;29.27;;
28003;SDS011;15330;51.234;6.754;2023-02-15T06:15:05;60.40;;;28.88;;
28003;SDS011;15330;51.234;6.754;2023-02-15T06:17:31;60.63;;;28.27;;
28003;SDS011;15330;51.234;6.754;2023-02-15T06:19:56;59.47;;;28.10;;
28003;SDS011;15330;51.234;6.754;2023-02-15T06:22:22;55.40;;;26.38;;
28003;SDS011;15330;51.234;6.754;2023-02-15T06:24:47;57.40;;;27.77;;
28003;SDS011;15330;51.234;6.754;2023-02-15T06:27:12;58.78;;;27.45;;
28003;SDS011;15330;51.234;6.754;2023-02-15T06:29:38;56.10;;;27.10;;
28003;SDS011;15330;51.234;6.754;2023-02-15T06:32:03;61.40;;;29.33;;
28003;SDS011;15330;51.234;6.754;2023-02-15T06:34:29;57.80;;;27.77;;
28003;SDS011;15330;51.234;6.754;2023-02-15T06:36:55;63.83;;;29.33;;
28003;SDS011;15330;51.234;6.754;2023-02-15T06:39:20;63.53;;;28.98;;
28003;SDS011;15330;51.234;6.754;2023-02-15T06:41:46;60.15;;;28.38;;
28003;SDS011;15330;51.234;6.754;2023-02-15T06:44:11;58.55;;;27.42;;
28003;SDS011;15330;51.234;6.754;2023-02-15T06:46:36;64.05;;;27.55;;
28003;SDS011;15330;51.234;6.754;2023-02-15T06:49:02;53.60;;;26.42;;
28003;SDS011;15330;51.234;6.754;2023-02-15T06:51:27;66.00;;;28.45;;
28003;SDS011;15330;51.234;6.754;2023-02-15T06:53:52;62.88;;;28.63;;
28003;SDS011;15330;51.234;6.754;2023-02-15T06:56:18;65.40;;;29.38;;
28003;SDS011;15330;51.234;6.754;2023-02-15T06:58:43;60.78;;;27.60;;
28003;SDS011;15330;51.234;6.754;2023-02-15T07:01:10;61.30;;;27.33;;
28003;SDS011;15330;51.234;6.754;2023-02-15T07:03:36;60.08;;;27.88;;
28003;SDS011;15330;51.234;6.754;2023-02-15T07:06:02;58.00;;;27.35;;
28003;SDS011;15330;51.234;6.754;2023-02-15T07:08:31;60.47;;;26.55;;
28003;SDS011;15330;51.234;6.754;2023-02-15T07:10:56;59.10;;;27.63;;
28003;SDS011;15330;51.234;6.754;2023-02-15T07:13:44;61.25;;;28.63;;
28003;SDS011;15330;51.234;6.754;2023-02-15T07:16:10;63.92;;;27.63;;
28003;SDS011;15330;51.234;6.754;2023-02-15T07:18:37;56.15;;;26.17;;
28003;SDS011;15330;51.234;6.754;2023-02-15T07:21:03;57.40;;;25.73;;
28003;SDS011;15330;51.234;6.754;2023-02-15T07:23:28;52.80;;;26.20;;
28003;SDS011;15330;51.234;6.754;2023-02-15T07:25:57;49.65;;;25.40;;
28003;SDS011;15330;51.234;6.754;2023-02-15T07:28:24;48.65;;;24.98;;
28003;SDS011;15330;51.234;6.754;2023-02-15T07:30:49;51.42;;;25.02;;
28003;SDS011;15330;51.234;6.754;2023-02-15T07:33:14;47.88;;;23.95;;
28003;SDS011;15330;51.234;6.754;2023-02-15T07:35:56;47.15;;;25.08;;
28003;SDS011;15330;51.234;6.754;2023-02-15T07:38:24;44.75;;;23.05;;
28003;SDS011;15330;51.234;6.754;2023-02-15T07:40:50;42.75;;;22.38;;
28003;SDS011;15330;51.234;6.754;2023-02-15T07:43:15;44.58;;;23.92;;
28003;SDS011;15330;51.234;6.754;2023-02-15T07:45:41;40.95;;;22.25;;
28003;SDS011;15330;51.234;6.754;2023-02-15T07:48:07;38.90;;;21.92;;
28003;SDS011;15330;51.234;6.754;2023-02-15T07:50:33;42.60;;;21.92;;
28003;SDS011;15330;51.234;6.754;2023-02-15T07:53:00;40.90;;;21.73;;
28003;SDS011;15330;51.234;6.754;2023-02-15T07:55:27;39.88;;;22.10;;
28003;SDS011;15330;51.234;6.754;2023-02-15T07:57:52;41.63;;;21.23;;
28003;SDS011;15330;51.234;6.754;2023-02-15T08:00:19;36.75;;;21.27;;
28003;SDS011;15330;51.234;6.754;2023-02-15T08:02:53;37.03;;;20.45;;
28003;SDS011;15330;51.234;6.754;2023-02-15T08:05:41;37.55;;;20.08;;
28003;SDS011;15330;51.234;6.754;2023-02-15T08:08:08;38.83;;;20.73;;
28003;SDS011;15330;51.234;6.754;2023-02-15T08:10:57;42.60;;;22.35;;
28003;SDS011;15330;51.234;6.754;2023-02-15T08:13:46;35.65;;;19.30;;
28003;SDS011;15330;51.234;6.754;2023-02-15T08:16:28;38.40;;;20.92;;
28003;SDS011;15330;51.234;6.754;2023-02-15T08:18:54;39.75;;;20.52;;
28003;SDS011;15330;51.234;6.754;2023-02-15T08:21:21;38.38;;;20.27;;
28003;SDS011;15330;51.234;6.754;2023-02-15T08:23:47;37.95;;;20.13;;
28003;SDS011;15330;51.234;6.754;2023-02-15T08:26:13;34.45;;;19.77;;
28003;SDS011;15330;51.234;6.754;2023-02-15T08:28:40;41.47;;;21.45;;
28003;SDS011;15330;51.234;6.754;2023-02-15T08:33:33;33.40;;;19.27;;
28003;SDS011;15330;51.234;6.754;2023-02-15T08:36:03;35.13;;;20.75;;
28003;SDS011;15330;51.234;6.754;2023-02-15T08:38:29;32.38;;;20.38;;
28003;SDS011;15330;51.234;6.754;2023-02-15T08:40:55;34.95;;;19.17;;
28003;SDS011;15330;51.234;6.754;2023-02-15T08:43:20;33.47;;;20.35;;
28003;SDS011;15330;51.234;6.754;2023-02-15T08:45:45;37.47;;;21.40;;
28003;SDS011;15330;51.234;6.754;2023-02-15T08:48:11;35.95;;;20.08;;
28003;SDS011;15330;51.234;6.754;2023-02-15T08:50:36;34.65;;;20.83;;
28003;SDS011;15330;51.234;6.754;2023-02-15T08:53:02;39.28;;;21.23;;
28003;SDS011;15330;51.234;6.754;2023-02-15T08:55:27;32.80;;;19.80;;
28003;SDS011;15330;51.234;6.754;2023-02-15T08:57:52;33.45;;;20.55;;
28003;SDS011;15330;51.234;6.754;2023-02-15T09:00:20;33.00;;;20.13;;
28003;SDS011;15330;51.234;6.754;2023-02-15T09:02:47;34.90;;;20.90;;
28003;SDS011;15330;51.234;6.754;2023-02-15T09:05:13;34.67;;;20.92;;
28003;SDS011;15330;51.234;6.754;2023-02-15T09:07:38;39.05;;;21.67;;
28003;SDS011;15330;51.234;6.754;2023-02-15T09:10:04;34.35;;;20.77;;
28003;SDS011;15330;51.234;6.754;2023-02-15T09:12:31;33.85;;;21.25;;
28003;SDS011;15330;51.234;6.754;2023-02-15T09:14:56;34.90;;;21.42;;
28003;SDS011;15330;51.234;6.754;2023-02-15T09:17:21;35.13;;;22.65;;
28003;SDS011;15330;51.234;6.754;2023-02-15T09:19:47;35.80;;;22.23;;
28003;SDS011;15330;51.234;6.754;2023-02-15T09:22:12;34.70;;;21.63;;
28003;SDS011;15330;51.234;6.754;2023-02-15T09:24:38;32.10;;;21.95;;
28003;SDS011;15330;51.234;6.754;2023-02-15T09:27:03;36.25;;;22.55;;
28003;SDS011;15330;51.234;6.754;2023-02-15T09:29:28;33.28;;;22.17;;
28003;SDS011;15330;51.234;6.754;2023-02-15T09:31:54;32.53;;;22.02;;
28003;SDS011;15330;51.234;6.754;2023-02-15T09:34:21;32.25;;;21.50;;
28003;SDS011;15330;51.234;6.754;2023-02-15T09:36:47;33.65;;;21.10;;
28003;SDS011;15330;51.234;6.754;2023-02-15T09:39:23;30.15;;;20.95;;
28003;SDS011;15330;51.234;6.754;2023-02-15T09:50:32;32.22;;;19.63;;
28003;SDS011;15330;51.234;6.754;2023-02-15T09:56:24;29.77;;;22.75;;
28003;SDS011;15330;51.234;6.754;2023-02-15T10:16:17;27.83;;;19.58;;
28003;SDS011;15330;51.234;6.754;2023-02-15T10:18:53;28.77;;;19.80;;
28003;SDS011;15330;51.234;6.754;2023-02-15T10:26:28;23.50;;;18.05;;
28003;SDS011;15330;51.234;6.754;2023-02-15T10:29:09;25.65;;;19.83;;
28003;SDS011;15330;51.234;6.754;2023-02-15T10:34:42;27.25;;;18.30;;
28003;SDS011;15330;51.234;6.754;2023-02-15T10:43:21;29.85;;;19.27;;
28003;SDS011;15330;51.234;6.754;2023-02-15T10:51:34;26.83;;;17.55;;
28003;SDS011;15330;51.234;6.754;2023-02-15T10:54:22;27.85;;;19.48;;
28003;SDS011;15330;51.234;6.754;2023-02-15T11:02:35;30.63;;;18.13;;
28003;SDS011;15330;51.234;6.754;2023-02-15T11:07:45;29.08;;;20.63;;
28003;SDS011;15330;51.234;6.754;2023-02-15T11:10:22;29.65;;;18.48;;
28003;SDS011;15330;51.234;6.754;2023-02-15T11:12:49;26.10;;;17.70;;
28003;SDS011;15330;51.234;6.754;2023-02-15T11:20:58;27.65;;;17.27;;
28003;SDS011;15330;51.234;6.754;2023-02-15T11:23:28;28.85;;;18.15;;
28003;SDS011;15330;51.234;6.754;2023-02-15T11:26:03;28.20;;;18.02;;
28003;SDS011;15330;51.234;6.754;2023-02-15T11:31:42;26.92;;;17.70;;
28003;SDS011;15330;51.234;6.754;2023-02-15T11:34:18;28.33;;;16.83;;
28003;SDS011;15330;51.234;6.754;2023-02-15T11:36:45;27.60;;;17.95;;
28003;SDS011;15330;51.234;6.754;2023-02-15T11:39:15;29.52;;;18.40;;
28003;SDS011;15330;51.234;6.754;2023-02-15T11:41:52;27.88;;;17.65;;
28003;SDS011;15330;51.234;6.754;2023-02-15T11:44:32;31.35;;;18.23;;
28003;SDS011;15330;51.234;6.754;2023-02-15T11:47:02;30.35;;;17.95;;
28003;SDS011;15330;51.234;6.754;2023-02-15T11:51:57;30.15;;;17.88;;
28003;SDS011;15330;51.234;6.754;2023-02-15T11:54:34;29.13;;;17.00;;
28003;SDS011;15330;51.234;6.754;2023-02-15T11:57:10;28.45;;;16.90;;
28003;SDS011;15330;51.234;6.754;2023-02-15T11:59:43;28.45;;;16.65;;
28003;SDS011;15330;51.234;6.754;2023-02-15T12:02:20;31.02;;;16.75;;
28003;SDS011;15330;51.234;6.754;2023-02-15T12:04:48;29.92;;;17.33;;
28003;SDS011;15330;51.234;6.754;2023-02-15T12:12:47;28.95;;;16.60;;
28003;SDS011;15330;51.234;6.754;2023-02-15T12:15:13;28.10;;;16.83;;
28003;SDS011;15330;51.234;6.754;2023-02-15T12:22:45;28.70;;;17.15;;
28003;SDS011;15330;51.234;6.754;2023-02-15T12:27:49;29.58;;;16.85;;
28003;SDS011;15330;51.234;6.754;2023-02-15T12:30:23;27.98;;;17.15;;
28003;SDS011;15330;51.234;6.754;2023-02-15T12:32:56;27.83;;;16.55;;
28003;SDS011;15330;51.234;6.754;2023-02-15T12:35:30;27.92;;;17.02;;
28003;SDS011;15330;51.234;6.754;2023-02-15T12:38:03;29.38;;;15.27;;
28003;SDS011;15330;51.234;6.754;2023-02-15T12:40:47;29.45;;;16.20;;
28003;SDS011;15330;51.234;6.754;2023-02-15T12:46:24;29.90;;;15.95;;
28003;SDS011;15330;51.234;6.754;2023-02-15T12:49:06;29.10;;;16.13;;
28003;SDS011;15330;51.234;6.754;2023-02-15T12:51:54;29.63;;;15.45;;
28003;SDS011;15330;51.234;6.754;2023-02-15T12:56:47;26.08;;;15.00;;
28003;SDS011;15330;51.234;6.754;2023-02-15T12:59:13;29.25;;;14.98;;
28003;SDS011;15330;51.234;6.754;2023-02-15T13:01:40;23.20;;;14.85;;
28003;SDS011;15330;51.234;6.754;2023-02-15T13:04:15;27.55;;;16.23;;
28003;SDS011;15330;51.234;6.754;2023-02-15T13:06:46;25.73;;;15.48;;
28003;SDS011;15330;51.234;6.754;2023-02-15T13:14:57;30.80;;;15.18;;
28003;SDS011;15330;51.234;6.754;2023-02-15T13:17:33;25.98;;;16.52;;
28003;SDS011;15330;51.234;6.754;2023-02-15T13:20:04;27.02;;;16.02;;
28003;SDS011;15330;51.234;6.754;2023-02-15T13:25:14;27.77;;;15.25;;
28003;SDS011;15330;51.234;6.754;2023-02-15T13:27:44;25.05;;;15.60;;
28003;SDS011;15330;51.234;6.754;2023-02-15T13:30:16;25.85;;;15.10;;
28003;SDS011;15330;51.234;6.754;2023-02-15T13:32:49;25.58;;;15.75;;
28003;SDS011;15330;51.234;6.754;2023-02-15T13:35:19;24.45;;;14.93;;
28003;SDS011;15330;51.234;6.754;2023-02-15T13:40:48;29.67;;;17.15;;
28003;SDS011;15330;51.234;6.754;2023-02-15T13:43:22;24.60;;;14.52;;
28003;SDS011;15330;51.234;6.754;2023-02-15T13:51:42;30.48;;;15.80;;
28003;SDS011;15330;51.234;6.754;2023-02-15T13:54:34;23.33;;;15.30;;
28003;SDS011;15330;51.234;6.754;2023-02-15T14:14:30;28.85;;;14.25;;
28003;SDS011;15330;51.234;6.754;2023-02-15T14:17:13;27.60;;;14.60;;
28003;SDS011;15330;51.234;6.754;2023-02-15T14:19:48;25.77;;;15.05;;
28003;SDS011;15330;51.234;6.754;2023-02-15T14:27:43;23.13;;;14.10;;
28003;SDS011;15330;51.234;6.754;2023-02-15T14:30:23;23.90;;;14.15;;
28003;SDS011;15330;51.234;6.754;2023-02-15T14:32:53;24.90;;;15.38;;
28003;SDS011;15330;51.234;6.754;2023-02-15T14:35:27;29.17;;;14.95;;
28003;SDS011;15330;51.234;6.754;2023-02-15T14:37:57;25.15;;;14.82;;
28003;SDS011;15330;51.234;6.754;2023-02-15T14:46:16;21.45;;;13.68;;
28003;SDS011;15330;51.234;6.754;2023-02-15T14:48:50;28.10;;;14.20;;
28003;SDS011;15330;51.234;6.754;2023-02-15T14:54:10;25.00;;;14.85;;
28003;SDS011;15330;51.234;6.754;2023-02-15T14:59:26;24.35;;;15.02;;
28003;SDS011;15330;51.234;6.754;2023-02-15T15:12:54;29.00;;;15.60;;
28003;SDS011;15330;51.234;6.754;2023-02-15T15:20:40;28.95;;;14.73;;
28003;SDS011;15330;51.234;6.754;2023-02-15T15:28:57;25.90;;;15.05;;
28003;SDS011;15330;51.234;6.754;2023-02-15T15:39:47;34.22;;;16.50;;
28003;SDS011;15330;51.234;6.754;2023-02-15T15:50:14;30.13;;;16.08;;
28003;SDS011;15330;51.234;6.754;2023-02-15T15:52:55;29.83;;;16.15;;
28003;SDS011;15330;51.234;6.754;2023-02-15T15:55:24;28.10;;;16.50;;
28003;SDS011;15330;51.234;6.754;2023-02-15T15:57:53;31.50;;;16.75;;
28003;SDS011;15330;51.234;6.754;2023-02-15T16:03:14;28.98;;;17.13;;
28003;SDS011;15330;51.234;6.754;2023-02-15T16:05:49;29.45;;;17.75;;
28003;SDS011;15330;51.234;6.754;2023-02-15T16:10:58;30.83;;;15.60;;
28003;SDS011;15330;51.234;6.754;2023-02-15T16:13:27;30.75;;;16.33;;
28003;SDS011;15330;51.234;6.754;2023-02-15T16:15:53;27.52;;;17.77;;
28003;SDS011;15330;51.234;6.754;2023-02-15T16:18:21;29.70;;;16.17;;
28003;SDS011;15330;51.234;6.754;2023-02-15T16:20:58;25.00;;;15.10;;
28003;SDS011;15330;51.234;6.754;2023-02-15T16:31:17;28.00;;;15.45;;
28003;SDS011;15330;51.234;6.754;2023-02-15T16:33:44;29.40;;;15.13;;
28003;SDS011;15330;51.234;6.754;2023-02-15T16:36:11;25.42;;;15.38;;
28003;SDS011;15330;51.234;6.754;2023-02-15T16:41:31;27.55;;;13.98;;
28003;SDS011;15330;51.234;6.754;2023-02-15T16:43:58;27.33;;;15.05;;
28003;SDS011;15330;51.234;6.754;2023-02-15T16:46:33;26.25;;;16.92;;
28003;SDS011;15330;51.234;6.754;2023-02-15T16:51:39;28.95;;;16.73;;
28003;SDS011;15330;51.234;6.754;2023-02-15T16:54:08;32.60;;;18.52;;
28003;SDS011;15330;51.234;6.754;2023-02-15T16:56:44;31.08;;;17.17;;
28003;SDS011;15330;51.234;6.754;2023-02-15T16:59:57;33.67;;;17.13;;
28003;SDS011;15330;51.234;6.754;2023-02-15T17:04:44;30.30;;;17.85;;
28003;SDS011;15330;51.234;6.754;2023-02-15T17:07:17;33.90;;;17.92;;
28003;SDS011;15330;51.234;6.754;2023-02-15T17:09:49;32.70;;;17.83;;
28003;SDS011;15330;51.234;6.754;2023-02-15T17:20:39;35.88;;;16.95;;
28003;SDS011;15330;51.234;6.754;2023-02-15T17:23:17;30.45;;;16.50;;
28003;SDS011;15330;51.234;6.754;2023-02-15T17:25:53;30.13;;;17.85;;
28003;SDS011;15330;51.234;6.754;2023-02-15T17:28:23;29.83;;;17.20;;
28003;SDS011;15330;51.234;6.754;2023-02-15T17:30:51;30.17;;;17.38;;
28003;SDS011;15330;51.234;6.754;2023-02-15T17:33:26;29.08;;;16.92;;
28003;SDS011;15330;51.234;6.754;2023-02-15T17:36:04;28.48;;;16.92;;
28003;SDS011;15330;51.234;6.754;2023-02-15T17:38:31;29.73;;;16.92;;
28003;SDS011;15330;51.234;6.754;2023-02-15T17:40:57;29.98;;;18.55;;
28003;SDS011;15330;51.234;6.754;2023-02-15T17:43:23;34.20;;;20.48;;
28003;SDS011;15330;51.234;6.754;2023-02-15T17:45:51;31.83;;;18.48;;
28003;SDS011;15330;51.234;6.754;2023-02-15T17:48:20;32.10;;;18.85;;
28003;SDS011;15330;51.234;6.754;2023-02-15T17:50:48;32.70;;;18.60;;
28003;SDS011;15330;51.234;6.754;2023-02-15T17:53:18;35.58;;;20.20;;
28003;SDS011;15330;51.234;6.754;2023-02-15T17:55:44;34.85;;;18.23;;
28003;SDS011;15330;51.234;6.754;2023-02-15T17:58:13;46.40;;;18.70;;
28003;SDS011;15330;51.234;6.754;2023-02-15T18:00:42;29.00;;;17.45;;
28003;SDS011;15330;51.234;6.754;2023-02-15T18:03:38;32.03;;;18.33;;
28003;SDS011;15330;51.234;6.754;2023-02-15T18:06:22;32.10;;;18.02;;
28003;SDS011;15330;51.234;6.754;2023-02-15T18:09:09;31.90;;;18.85;;
28003;SDS011;15330;51.234;6.754;2023-02-15T18:11:54;33.03;;;18.45;;
28003;SDS011;15330;51.234;6.754;2023-02-15T18:14:20;33.67;;;17.98;;
28003;SDS011;15330;51.234;6.754;2023-02-15T18:16:45;30.40;;;18.55;;
28003;SDS011;15330;51.234;6.754;2023-02-15T18:19:18;34.15;;;18.65;;
28003;SDS011;15330;51.234;6.754;2023-02-15T18:21:51;30.23;;;17.95;;
28003;SDS011;15330;51.234;6.754;2023-02-15T18:24:23;32.67;;;18.35;;
28003;SDS011;15330;51.234;6.754;2023-02-15T18:26:50;29.25;;;17.27;;
28003;SDS011;15330;51.234;6.754;2023-02-15T18:29:17;32.80;;;18.08;;
28003;SDS011;15330;51.234;6.754;2023-02-15T18:31:43;36.00;;;19.15;;
28003;SDS011;15330;51.234;6.754;2023-02-15T18:34:19;29.73;;;17.90;;
28003;SDS011;15330;51.234;6.754;2023-02-15T18:36:53;29.00;;;17.02;;